Time;durP1;ratioP1;P1;durP2;ratioP2;P2;SDS_P1;SDS_P2;PMS_P1;PMS_P2;Temp;Humidity;BMP_temperature;BMP_pressure;BME280_temperature;BME280_humidity;BME280_pressure;Samples;Min_cycle;Max_cycle;Signal;HPM_P1;HPM_P2
2021/04/27 00:00:44;;;;;;;4.33;2.27;;;4.00;99.90;;;;;;5014540;28;20752;-86
2021/04/27 00:03:10;;;;;;;2.57;2.37;;;4.10;99.90;;;;;;5015318;28;20169;-86
2021/04/27 00:05:36;;;;;;;2.27;1.60;;;4.00;99.90;;;;;;5015198;28;20878;-86
2021/04/27 00:08:02;;;;;;;2.53;2.03;;;3.90;99.90;;;;;;5014965;28;20433;-85
2021/04/27 00:10:27;;;;;;;3.50;1.83;;;3.90;99.90;;;;;;5015808;28;20368;-86
2021/04/27 00:12:53;;;;;;;3.10;2.07;;;3.90;99.90;;;;;;5015546;28;20476;-86
2021/04/27 00:15:21;;;;;;;2.90;2.23;;;3.80;99.90;;;;;;5015198;28;20198;-86
2021/04/27 00:17:48;;;;;;;3.17;1.80;;;3.80;99.90;;;;;;5015038;28;20230;-86
2021/04/27 00:20:15;;;;;;;3.50;2.17;;;3.80;99.90;;;;;;5013921;28;20549;-86
2021/04/27 00:22:40;;;;;;;4.67;2.37;;;3.80;99.90;;;;;;5013992;28;20433;-85
2021/04/27 00:25:07;;;;;;;2.07;1.63;;;3.80;99.90;;;;;;5014028;28;20824;-86
2021/04/27 00:27:33;;;;;;;2.40;2.07;;;3.70;99.90;;;;;;5015975;28;20189;-86
2021/04/27 00:29:58;;;;;;;1.50;1.40;;;3.70;99.90;;;;;;5015413;28;20814;-86
2021/04/27 00:32:24;;;;;;;10.63;2.27;;;3.70;99.90;;;;;;5015524;28;20599;-86
2021/04/27 00:34:51;;;;;;;4.20;2.40;;;3.70;99.90;;;;;;5015156;28;20259;-86
2021/04/27 00:37:16;;;;;;;1.97;1.77;;;3.70;99.90;;;;;;5015088;28;20456;-86
2021/04/27 00:39:42;;;;;;;5.10;2.30;;;3.60;99.90;;;;;;5013528;28;20447;-86
2021/04/27 00:42:08;;;;;;;4.33;2.13;;;3.60;99.90;;;;;;5013905;28;20183;-86
2021/04/27 00:44:34;;;;;;;8.13;2.10;;;3.60;99.90;;;;;;5015236;28;20187;-86
2021/04/27 00:46:59;;;;;;;4.37;3.00;;;3.60;99.90;;;;;;5014678;28;20434;-86
2021/04/27 00:49:25;;;;;;;2.57;2.37;;;3.60;99.90;;;;;;5013358;28;20262;-86
2021/04/27 00:51:50;;;;;;;2.27;2.00;;;3.50;99.90;;;;;;5014817;28;20191;-86
2021/04/27 00:54:16;;;;;;;2.30;2.10;;;3.50;99.90;;;;;;5014906;28;20657;-86
2021/04/27 00:56:42;;;;;;;4.10;1.80;;;3.60;99.90;;;;;;5014792;28;20821;-86
2021/04/27 00:59:07;;;;;;;2.20;2.00;;;3.50;99.90;;;;;;5014690;28;20204;-86
2021/04/27 01:01:33;;;;;;;2.67;1.73;;;3.60;99.90;;;;;;5014471;28;20653;-86
2021/04/27 01:04:00;;;;;;;4.37;1.50;;;3.50;99.90;;;;;;5013531;28;20183;-85
2021/04/27 01:06:25;;;;;;;2.40;2.20;;;3.40;99.90;;;;;;5015091;28;20504;-86
2021/04/27 01:09:03;;;;;;;6.03;2.20;;;3.40;99.90;;;;;;5013735;28;20915;-86
2021/04/27 01:12:07;;;;;;;2.30;2.03;;;3.30;99.90;;;;;;5014128;28;20199;-86
2021/04/27 01:14:52;;;;;;;3.30;2.20;;;3.30;99.90;;;;;;5016070;28;20948;-86
2021/04/27 01:17:20;;;;;;;4.13;1.57;;;3.20;99.90;;;;;;5010945;28;20462;-86
2021/04/27 01:19:56;;;;;;;5.10;1.90;;;3.20;99.90;;;;;;5014489;28;20458;-85
2021/04/27 01:22:32;;;;;;;1.83;1.70;;;3.10;99.90;;;;;;5011835;28;20552;-86
2021/04/27 01:25:03;;;;;;;3.17;2.30;;;3.10;99.90;;;;;;5014201;28;20416;-86
2021/04/27 01:27:29;;;;;;;3.83;2.00;;;3.00;99.90;;;;;;5012469;28;20446;-86
2021/04/27 01:29:55;;;;;;;3.20;2.17;;;3.10;99.90;;;;;;5014278;28;20517;-86
2021/04/27 01:32:21;;;;;;;4.47;1.83;;;3.00;99.90;;;;;;5014119;28;20916;-85
2021/04/27 01:34:47;;;;;;;3.00;1.93;;;3.00;99.90;;;;;;5014179;28;20491;-86
2021/04/27 01:37:14;;;;;;;5.23;1.87;;;3.00;99.90;;;;;;5013969;28;20514;-86
2021/04/27 01:39:40;;;;;;;3.10;1.70;;;2.90;99.90;;;;;;5012708;28;20470;-86
2021/04/27 01:42:07;;;;;;;5.10;2.40;;;2.90;99.90;;;;;;5013894;28;20468;-86
2021/04/27 01:44:34;;;;;;;4.67;2.53;;;2.80;99.90;;;;;;5014012;28;20396;-86
2021/04/27 01:47:01;;;;;;;3.77;2.30;;;2.80;99.90;;;;;;5013756;28;20439;-85
2021/04/27 01:49:27;;;;;;;4.00;2.50;;;2.80;99.90;;;;;;5012593;28;20999;-85
2021/04/27 01:51:53;;;;;;;2.83;1.93;;;2.80;99.90;;;;;;5013583;28;20425;-85
2021/04/27 01:54:28;;;;;;;3.33;2.37;;;2.80;99.90;;;;;;5013925;28;20438;-85
2021/04/27 01:56:54;;;;;;;2.17;1.97;;;2.70;99.90;;;;;;5013791;28;20475;-85
2021/04/27 01:59:20;;;;;;;5.73;1.77;;;2.70;99.90;;;;;;5011919;28;20455;-86
2021/04/27 02:01:47;;;;;;;2.43;2.23;;;2.70;99.90;;;;;;5014002;28;20418;-86
2021/04/27 02:04:20;;;;;;;1.73;1.63;;;2.70;99.90;;;;;;5013493;28;20435;-86
2021/04/27 02:06:46;;;;;;;1.90;1.80;;;2.70;99.90;;;;;;5009986;28;20429;-86
2021/04/27 02:09:13;;;;;;;2.33;2.13;;;2.60;99.90;;;;;;5013197;28;20461;-85
2021/04/27 02:11:42;;;;;;;2.83;2.40;;;2.60;99.90;;;;;;5013398;28;20250;-85
2021/04/27 02:14:09;;;;;;;4.43;2.33;;;2.60;99.90;;;;;;5013070;28;20497;-85
2021/04/27 02:16:44;;;;;;;2.80;2.10;;;2.60;99.90;;;;;;5012987;28;21164;-86
2021/04/27 02:19:10;;;;;;;3.67;2.17;;;2.60;99.90;;;;;;5013240;28;20439;-85
2021/04/27 02:21:38;;;;;;;3.10;2.07;;;2.60;99.90;;;;;;5013569;28;20996;-87
2021/04/27 02:24:04;;;;;;;4.63;2.30;;;2.50;99.90;;;;;;5013688;28;20552;-85
2021/04/27 02:26:30;;;;;;;3.63;2.30;;;2.50;99.90;;;;;;5013120;28;20437;-85
2021/04/27 02:28:56;;;;;;;2.97;2.63;;;2.50;99.90;;;;;;5011384;28;20457;-85
2021/04/27 02:31:22;;;;;;;7.03;2.20;;;2.40;99.90;;;;;;5013357;28;20433;-86
2021/04/27 02:33:48;;;;;;;2.67;2.20;;;2.40;99.90;;;;;;5011721;28;20500;-86
2021/04/27 02:36:13;;;;;;;3.57;2.03;;;2.40;99.90;;;;;;5012675;28;20426;-86
2021/04/27 02:38:41;;;;;;;5.70;2.30;;;2.40;99.90;;;;;;5012905;28;20620;-86
2021/04/27 02:41:07;;;;;;;3.00;2.40;;;2.40;99.90;;;;;;5011865;28;20190;-86
2021/04/27 02:43:35;;;;;;;3.37;2.57;;;2.40;99.90;;;;;;5013540;28;20425;-86
2021/04/27 02:46:01;;;;;;;3.47;2.13;;;2.40;99.90;;;;;;5012853;28;20651;-86
2021/04/27 02:48:28;;;;;;;9.10;2.17;;;2.30;99.90;;;;;;5013208;28;20507;-86
2021/04/27 02:50:56;;;;;;;3.53;2.47;;;2.30;99.90;;;;;;5012669;28;20218;-86
2021/04/27 02:53:22;;;;;;;5.10;2.07;;;2.30;99.90;;;;;;5012618;28;20501;-85
2021/04/27 02:55:49;;;;;;;2.23;2.03;;;2.20;99.90;;;;;;5012408;28;20479;-85
2021/04/27 02:58:15;;;;;;;9.40;2.00;;;2.20;99.90;;;;;;5012682;28;20468;-86
2021/04/27 03:00:41;;;;;;;3.70;2.60;;;2.20;99.90;;;;;;5012394;28;20418;-85
2021/04/27 03:03:07;;;;;;;2.80;2.27;;;2.30;99.90;;;;;;5013215;28;20433;-85
2021/04/27 03:05:33;;;;;;;6.00;2.70;;;2.20;99.90;;;;;;5011336;28;20407;-85
2021/04/27 03:07:59;;;;;;;5.27;2.80;;;2.20;99.90;;;;;;5012758;28;20756;-85
2021/04/27 03:10:24;;;;;;;2.97;2.67;;;2.30;99.90;;;;;;5012800;28;20612;-85
2021/04/27 03:12:50;;;;;;;3.70;2.50;;;2.20;99.90;;;;;;5011542;28;20643;-85
2021/04/27 03:15:16;;;;;;;6.93;2.93;;;2.30;99.90;;;;;;5011417;28;20438;-85
2021/04/27 03:17:42;;;;;;;2.57;2.03;;;2.30;99.90;;;;;;5010974;28;20241;-85
2021/04/27 03:20:11;;;;;;;7.60;2.30;;;2.30;99.90;;;;;;5012508;28;20525;-85
2021/04/27 03:22:36;;;;;;;3.27;2.27;;;2.20;99.90;;;;;;5012086;28;20190;-85
2021/04/27 03:25:04;;;;;;;5.70;2.37;;;2.20;99.90;;;;;;5012218;28;20429;-85
2021/04/27 03:27:30;;;;;;;2.70;1.70;;;2.20;99.90;;;;;;5012186;28;20249;-85
2021/04/27 03:29:55;;;;;;;5.43;2.37;;;2.20;99.90;;;;;;5013106;28;20452;-86
2021/04/27 03:32:21;;;;;;;11.50;2.43;;;2.20;99.90;;;;;;5012018;28;20919;-87
2021/04/27 03:34:47;;;;;;;11.23;3.07;;;2.20;99.90;;;;;;5011026;28;20186;-86
2021/04/27 03:37:13;;;;;;;6.70;2.63;;;2.20;99.90;;;;;;5008289;28;20207;-86
2021/04/27 03:39:39;;;;;;;10.80;2.83;;;2.20;99.90;;;;;;5012220;28;20230;-86
2021/04/27 03:42:05;;;;;;;4.73;3.17;;;2.20;99.90;;;;;;5012162;28;20439;-86
2021/04/27 03:44:30;;;;;;;5.20;2.70;;;2.20;99.90;;;;;;5012254;28;20512;-86
2021/04/27 03:46:56;;;;;;;8.67;2.67;;;2.20;99.90;;;;;;5012593;28;20912;-89
2021/04/27 03:49:22;;;;;;;4.20;2.50;;;2.30;99.90;;;;;;5016286;28;20197;-89
2021/04/27 03:51:48;;;;;;;7.00;2.40;;;2.30;99.90;;;;;;5018193;28;20197;-85
2021/04/27 03:54:13;;;;;;;2.67;1.93;;;2.30;99.90;;;;;;5014241;28;20198;-85
2021/04/27 03:56:39;;;;;;;2.50;2.33;;;2.20;99.90;;;;;;5011947;28;20229;-85
2021/04/27 03:59:05;;;;;;;2.30;2.10;;;2.20;99.90;;;;;;5012058;28;20195;-86
2021/04/27 04:01:30;;;;;;;3.33;2.53;;;2.20;99.90;;;;;;5012069;28;20278;-85
2021/04/27 04:03:56;;;;;;;3.10;2.10;;;2.20;99.90;;;;;;5012096;28;20207;-85
2021/04/27 04:06:22;;;;;;;2.90;2.63;;;2.20;99.90;;;;;;5012067;28;20240;-85
2021/04/27 04:08:47;;;;;;;4.20;2.50;;;2.20;99.90;;;;;;5010920;28;20292;-85
2021/04/27 04:11:13;;;;;;;2.57;2.37;;;2.20;99.90;;;;;;5011939;28;20210;-85
2021/04/27 04:13:38;;;;;;;3.57;2.57;;;2.20;99.90;;;;;;5012487;28;20183;-85
2021/04/27 04:16:04;;;;;;;5.70;2.63;;;2.20;99.90;;;;;;5011391;28;20848;-83
2021/04/27 04:18:30;;;;;;;3.17;2.10;;;2.20;99.90;;;;;;5012108;28;20211;-84
2021/04/27 04:20:56;;;;;;;2.90;2.23;;;2.20;99.90;;;;;;5012313;28;20451;-83
2021/04/27 04:23:21;;;;;;;5.57;2.93;;;2.20;99.90;;;;;;5012037;28;20183;-83
2021/04/27 04:25:47;;;;;;;2.57;2.27;;;2.10;99.90;;;;;;5012237;28;20190;-84
2021/04/27 04:28:13;;;;;;;6.13;2.90;;;2.20;99.90;;;;;;5007947;28;20266;-84
2021/04/27 04:30:38;;;;;;;2.97;2.53;;;2.20;99.90;;;;;;5011567;28;20215;-83
2021/04/27 04:33:05;;;;;;;3.20;2.53;;;2.30;99.90;;;;;;5012133;28;20191;-84
2021/04/27 04:35:32;;;;;;;7.03;2.70;;;2.30;99.90;;;;;;5011405;28;20218;-83
2021/04/27 04:37:58;;;;;;;6.40;2.90;;;2.30;99.90;;;;;;5011937;28;20855;-83
2021/04/27 04:40:23;;;;;;;5.30;3.33;;;2.30;99.90;;;;;;5013024;28;20496;-83
2021/04/27 04:42:49;;;;;;;12.70;3.10;;;2.30;99.90;;;;;;5017932;28;20437;-82
2021/04/27 04:45:16;;;;;;;9.47;2.97;;;2.40;99.90;;;;;;5018141;28;20179;-80
2021/04/27 04:47:43;;;;;;;6.53;3.03;;;2.40;99.90;;;;;;5016362;28;20233;-84
2021/04/27 04:50:11;;;;;;;3.60;2.50;;;2.50;99.90;;;;;;5014171;28;20456;-84
2021/04/27 04:52:37;;;;;;;4.20;2.40;;;2.60;99.90;;;;;;5015545;28;20426;-84
2021/04/27 04:55:07;;;;;;;10.60;2.60;;;2.60;99.90;;;;;;5019442;28;20429;-85
2021/04/27 04:57:34;;;;;;;4.10;3.07;;;2.70;99.90;;;;;;5014282;28;20450;-85
2021/04/27 05:00:00;;;;;;;6.40;2.67;;;2.90;99.90;;;;;;5017763;28;20458;-84
2021/04/27 05:02:27;;;;;;;12.13;3.40;;;2.90;99.90;;;;;;5019009;28;20464;-84
2021/04/27 05:04:52;;;;;;;5.97;2.80;;;3.00;99.90;;;;;;5020189;28;20389;-83
2021/04/27 05:07:21;;;;;;;2.83;2.40;;;3.10;99.90;;;;;;5020779;28;20465;-83
2021/04/27 05:09:46;;;;;;;5.40;2.90;;;3.20;99.90;;;;;;5021660;28;20203;-83
2021/04/27 05:12:12;;;;;;;6.93;3.30;;;3.40;99.90;;;;;;5021287;28;20491;-83
2021/04/27 05:14:39;;;;;;;7.10;2.97;;;3.50;99.90;;;;;;5021410;28;20183;-83
2021/04/27 05:17:06;;;;;;;8.73;3.97;;;3.50;99.90;;;;;;5022725;28;20213;-83
2021/04/27 05:19:33;;;;;;;5.80;2.50;;;3.70;99.90;;;;;;5022949;28;20448;-83
2021/04/27 05:22:00;;;;;;;6.67;3.37;;;3.90;99.90;;;;;;5023183;28;21014;-84
2021/04/27 05:24:26;;;;;;;3.33;3.00;;;4.00;99.90;;;;;;5022152;28;20500;-83
2021/04/27 05:26:51;;;;;;;8.00;3.33;;;4.20;99.90;;;;;;5021306;28;20456;-82
2021/04/27 05:29:18;;;;;;;8.40;3.90;;;4.40;99.90;;;;;;5022691;28;20514;-83
2021/04/27 05:31:43;;;;;;;5.40;3.10;;;4.70;99.90;;;;;;5022044;28;20208;-84
2021/04/27 05:34:09;;;;;;;4.90;2.57;;;5.20;99.90;;;;;;5021683;28;20829;-83
2021/04/27 05:36:35;;;;;;;10.03;3.37;;;5.80;99.90;;;;;;5021436;28;20206;-83
2021/04/27 05:39:00;;;;;;;4.57;3.13;;;6.50;99.90;;;;;;5020492;28;20234;-82
2021/04/27 05:41:26;;;;;;;3.50;2.70;;;7.10;99.90;;;;;;5021751;28;20225;-83
2021/04/27 05:43:52;;;;;;;4.23;3.17;;;7.40;99.90;;;;;;5021638;28;20177;-84
2021/04/27 05:46:17;;;;;;;4.20;3.00;;;8.10;99.90;;;;;;5021871;28;20208;-84
2021/04/27 05:48:43;;;;;;;9.20;3.60;;;9.10;99.90;;;;;;5020757;28;20205;-82
2021/04/27 05:51:08;;;;;;;4.53;3.17;;;9.40;99.90;;;;;;5019496;28;20179;-84
2021/04/27 05:53:34;;;;;;;6.27;3.93;;;10.00;99.90;;;;;;5021022;28;20266;-84
2021/04/27 05:56:00;;;;;;;7.13;3.97;;;10.90;99.90;;;;;;5018031;28;20183;-83
2021/04/27 05:58:25;;;;;;;5.40;3.40;;;11.30;99.90;;;;;;5022177;28;20213;-82
2021/04/27 06:00:51;;;;;;;11.93;3.67;;;11.70;98.60;;;;;;5022510;28;20553;-84
2021/04/27 06:03:16;;;;;;;10.37;3.93;;;12.10;98.00;;;;;;5022025;28;20231;-84
2021/04/27 06:05:42;;;;;;;7.33;3.77;;;12.60;96.50;;;;;;5019890;28;20256;-83
2021/04/27 06:08:07;;;;;;;5.40;3.93;;;12.70;95.80;;;;;;5022190;28;20201;-83
2021/04/27 06:10:33;;;;;;;5.00;3.80;;;13.10;94.80;;;;;;5020421;28;20218;-83
2021/04/27 06:12:58;;;;;;;10.40;4.60;;;13.10;94.40;;;;;;5020319;28;20205;-85
2021/04/27 06:15:24;;;;;;;10.33;4.17;;;13.10;93.50;;;;;;5015598;28;20190;-84
2021/04/27 06:17:50;;;;;;;6.47;3.63;;;13.20;92.90;;;;;;5022069;28;20215;-83
2021/04/27 06:20:16;;;;;;;5.77;4.73;;;13.20;92.80;;;;;;5023229;28;20217;-83
2021/04/27 06:22:41;;;;;;;3.20;3.00;;;12.90;92.30;;;;;;5019479;28;20183;-84
2021/04/27 06:25:09;;;;;;;6.13;3.67;;;12.80;92.50;;;;;;5019717;28;20805;-83
2021/04/27 06:27:36;;;;;;;6.77;3.60;;;12.50;92.30;;;;;;5021767;28;20183;-84
2021/04/27 06:30:04;;;;;;;4.73;3.60;;;12.40;92.70;;;;;;5018209;28;20452;-84
2021/04/27 06:32:30;;;;;;;7.80;3.67;;;12.40;92.60;;;;;;5016163;28;20441;-84
2021/04/27 06:34:56;;;;;;;3.63;3.33;;;12.60;93.30;;;;;;5022201;28;20433;-84
2021/04/27 06:37:22;;;;;;;4.20;3.73;;;12.60;92.30;;;;;;5018037;28;20241;-84
2021/04/27 06:39:48;;;;;;;5.20;3.57;;;12.60;92.10;;;;;;5017216;28;20895;-81
2021/04/27 06:42:14;;;;;;;5.70;4.17;;;12.60;92.80;;;;;;5020655;28;20440;-81
2021/04/27 06:44:40;;;;;;;5.10;3.93;;;12.70;91.80;;;;;;5018862;28;20826;-82
2021/04/27 06:47:06;;;;;;;6.33;3.83;;;13.20;92.60;;;;;;5035793;28;20183;-80
2021/04/27 06:49:33;;;;;;;5.60;3.70;;;13.00;90.90;;;;;;5021960;28;20845;-81
2021/04/27 06:51:58;;;;;;;12.60;4.10;;;13.30;91.40;;;;;;5024578;28;20566;-81
2021/04/27 06:54:24;;;;;;;7.33;3.37;;;13.10;90.70;;;;;;5014843;28;20445;-81
2021/04/27 06:56:49;;;;;;;6.77;3.83;;;13.20;91.30;;;;;;5015640;28;20198;-81
2021/04/27 06:59:17;;;;;;;6.77;3.90;;;13.30;92.30;;;;;;5014738;28;20266;-81
2021/04/27 07:01:42;;;;;;;7.27;4.60;;;13.60;90.50;;;;;;5014275;28;20171;-81
2021/04/27 07:04:08;;;;;;;8.00;4.33;;;13.60;91.70;;;;;;5015602;28;20445;-80
2021/04/27 07:06:34;;;;;;;8.57;4.80;;;13.70;90.40;;;;;;5016490;28;20182;-80
2021/04/27 07:08:59;;;;;;;5.73;4.10;;;14.00;91.10;;;;;;5015278;28;20479;-80
2021/04/27 07:11:25;;;;;;;8.83;4.80;;;14.00;90.20;;;;;;5016312;28;20193;-80
2021/04/27 07:13:50;;;;;;;5.83;4.47;;;14.20;88.90;;;;;;5015629;28;20217;-81
2021/04/27 07:16:17;;;;;;;11.70;5.07;;;14.30;90.50;;;;;;5016906;28;20182;-81
2021/04/27 07:18:43;;;;;;;5.53;4.60;;;14.60;89.80;;;;;;5016610;28;20194;-81
2021/04/27 07:21:08;;;;;;;11.07;4.20;;;14.60;88.60;;;;;;5014783;28;20477;-81
2021/04/27 07:23:34;;;;;;;9.73;5.40;;;14.90;88.20;;;;;;5014961;28;20179;-81
2021/04/27 07:25:59;;;;;;;10.00;3.97;;;15.10;88.00;;;;;;5015095;28;20221;-81
2021/04/27 07:28:25;;;;;;;6.57;4.60;;;15.50;89.80;;;;;;5014330;28;20653;-81
2021/04/27 07:30:52;;;;;;;8.07;4.60;;;15.70;87.90;;;;;;5015394;28;20179;-80
2021/04/27 07:33:18;;;;;;;9.50;4.60;;;15.70;87.20;;;;;;5016611;28;20174;-81
2021/04/27 07:35:44;;;;;;;4.87;4.47;;;15.70;88.00;;;;;;5016738;28;20451;-80
2021/04/27 07:38:09;;;;;;;9.10;4.47;;;15.50;86.20;;;;;;5020293;28;20195;-79
2021/04/27 07:40:36;;;;;;;7.53;3.90;;;15.60;87.00;;;;;;5020467;28;20202;-81
2021/04/27 07:43:03;;;;;;;14.87;4.63;;;15.20;83.80;;;;;;5020367;28;20202;-80
2021/04/27 07:45:34;;;;;;;10.03;4.40;;;15.30;83.90;;;;;;5018338;28;20429;-81
2021/04/27 07:48:04;;;;;;;7.60;5.27;;;15.10;85.60;;;;;;5017864;28;20398;-81
2021/04/27 07:50:30;;;;;;;8.10;4.30;;;15.30;85.10;;;;;;5016042;28;20441;-80
2021/04/27 07:52:56;;;;;;;9.43;4.60;;;15.10;83.90;;;;;;5014595;28;20787;-81
2021/04/27 07:55:23;;;;;;;9.50;4.30;;;15.30;86.00;;;;;;5016286;28;20191;-81
2021/04/27 07:57:48;;;;;;;9.30;5.40;;;15.40;84.20;;;;;;5017401;28;20508;-81
2021/04/27 08:00:14;;;;;;;8.70;4.87;;;15.40;83.00;;;;;;5021929;28;20450;-81
2021/04/27 08:02:40;;;;;;;5.70;4.13;;;15.50;83.70;;;;;;5021423;28;20258;-81
2021/04/27 08:05:07;;;;;;;11.00;3.97;;;15.40;85.40;;;;;;5021127;28;20520;-81
2021/04/27 08:07:33;;;;;;;5.80;4.93;;;15.60;85.10;;;;;;5020510;28;20429;-82
2021/04/27 08:09:59;;;;;;;7.27;5.50;;;15.90;84.20;;;;;;5011621;28;20451;-84
2021/04/27 08:12:25;;;;;;;6.00;5.10;;;16.40;87.70;;;;;;5009805;28;21118;-84
2021/04/27 08:14:51;;;;;;;9.73;5.47;;;16.80;83.70;;;;;;5004986;28;20191;-84
2021/04/27 08:17:16;;;;;;;9.77;5.50;;;16.70;82.30;;;;;;5007943;28;20515;-84
2021/04/27 08:19:42;;;;;;;9.70;5.73;;;17.10;84.60;;;;;;5009755;28;20581;-82
2021/04/27 08:22:08;;;;;;;6.30;5.00;;;17.40;82.40;;;;;;5012101;28;20194;-83
2021/04/27 08:24:34;;;;;;;7.50;5.13;;;17.40;82.40;;;;;;5012026;28;20187;-84
2021/04/27 08:27:00;;;;;;;6.03;5.47;;;17.30;82.30;;;;;;5007347;28;20285;-85
2021/04/27 08:29:26;;;;;;;9.10;6.30;;;17.30;80.50;;;;;;5009934;28;20457;-83
2021/04/27 08:31:52;;;;;;;8.53;5.90;;;17.50;81.80;;;;;;5010175;28;20425;-85
2021/04/27 08:34:17;;;;;;;8.77;5.40;;;17.90;83.30;;;;;;5013961;28;20195;-83
2021/04/27 08:36:43;;;;;;;8.73;5.60;;;17.90;79.30;;;;;;5008511;28;20233;-84
2021/04/27 08:39:09;;;;;;;5.93;5.37;;;17.90;80.70;;;;;;5013431;28;20256;-81
2021/04/27 08:41:36;;;;;;;6.17;5.43;;;18.00;79.60;;;;;;5010820;28;20240;-83
2021/04/27 08:44:04;;;;;;;6.93;4.87;;;18.30;82.20;;;;;;5009803;28;20202;-82
2021/04/27 08:46:30;;;;;;;8.20;5.50;;;19.00;81.90;;;;;;5009863;28;20437;-83
2021/04/27 08:48:56;;;;;;;7.73;5.77;;;19.00;76.30;;;;;;5014702;28;20449;-82
2021/04/27 08:51:22;;;;;;;7.27;5.60;;;19.00;78.10;;;;;;5015291;28;20179;-84
2021/04/27 08:53:48;;;;;;;8.07;5.90;;;19.30;75.10;;;;;;5015374;28;20420;-82
2021/04/27 08:56:14;;;;;;;11.60;6.20;;;19.20;75.30;;;;;;5015435;28;20273;-84
2021/04/27 08:58:40;;;;;;;12.32;8.98;;;19.40;78.10;;;;;;5014825;28;20546;-82
2021/04/27 09:01:06;;;;;;;7.00;6.10;;;19.90;77.40;;;;;;5013540;28;20190;-82
2021/04/27 09:03:43;;;;;;;6.33;5.73;;;19.90;74.50;;;;;;5014317;28;20963;-83
2021/04/27 09:06:16;;;;;;;7.23;6.03;;;19.90;74.10;;;;;;5014872;28;20548;-79
2021/04/27 09:08:42;;;;;;;10.90;5.93;;;19.70;75.70;;;;;;5015593;28;20491;-81
2021/04/27 09:11:42;;;;;;;10.63;7.20;;;19.70;75.70;;;;;;5015077;28;20410;-81
2021/04/27 09:14:09;;;;;;;7.40;5.60;;;20.30;76.50;;;;;;4995914;28;20183;-81
2021/04/27 09:16:35;;;;;;;9.00;6.17;;;20.50;73.50;;;;;;4995667;28;20410;-81
2021/04/27 09:19:01;;;;;;;9.97;5.67;;;20.30;72.00;;;;;;4995364;28;20952;-80
2021/04/27 09:21:36;;;;;;;6.63;6.03;;;20.40;73.50;;;;;;5009906;28;20425;-80
2021/04/27 09:24:17;;;;;;;8.37;6.40;;;20.20;72.00;;;;;;5014602;28;20429;-84
2021/04/27 09:26:52;;;;;;;6.87;6.13;;;20.40;72.10;;;;;;5013338;28;20433;-84
2021/04/27 09:29:38;;;;;;;7.47;6.70;;;20.50;71.20;;;;;;5010625;28;20484;-84
2021/04/27 09:32:05;;;;;;;6.60;5.63;;;20.70;70.60;;;;;;5012797;28;20779;-82
2021/04/27 09:34:36;;;;;;;10.13;6.53;;;20.60;72.00;;;;;;5013906;28;20465;-83
2021/04/27 09:37:10;;;;;;;8.03;5.40;;;20.40;72.20;;;;;;5012060;28;20465;-84
2021/04/27 09:39:42;;;;;;;8.70;6.90;;;20.60;70.30;;;;;;5013497;28;20442;-84
2021/04/27 09:42:19;;;;;;;9.80;6.40;;;20.70;71.00;;;;;;5012807;28;20468;-85
2021/04/27 09:44:49;;;;;;;8.43;6.33;;;20.80;71.10;;;;;;5013234;28;20440;-83
2021/04/27 09:47:22;;;;;;;8.07;5.83;;;20.30;70.00;;;;;;5013060;28;20435;-83
2021/04/27 09:49:53;;;;;;;8.83;6.60;;;20.00;69.90;;;;;;5009827;28;20527;-83
2021/04/27 09:52:19;;;;;;;8.13;6.40;;;19.70;69.90;;;;;;5011662;28;20433;-84
2021/04/27 09:55:08;;;;;;;11.63;6.40;;;19.60;71.10;;;;;;5013510;28;20449;-82
2021/04/27 09:57:40;;;;;;;7.67;6.87;;;19.60;70.40;;;;;;5012123;28;20453;-83
2021/04/27 10:00:31;;;;;;;7.80;6.70;;;19.70;71.70;;;;;;5013612;28;20446;-83
2021/04/27 10:02:59;;;;;;;8.97;6.73;;;19.90;70.50;;;;;;4994436;28;20414;-83
2021/04/27 10:05:25;;;;;;;13.20;7.37;;;19.90;70.10;;;;;;4994816;28;20433;-83
2021/04/27 10:07:52;;;;;;;9.20;6.93;;;20.10;69.70;;;;;;4994422;28;20398;-82
2021/04/27 10:10:18;;;;;;;8.97;6.70;;;20.80;70.50;;;;;;5003400;28;20202;-82
2021/04/27 10:12:46;;;;;;;12.60;7.10;;;21.00;68.20;;;;;;5013434;28;20509;-82
2021/04/27 10:15:13;;;;;;;12.50;7.57;;;21.20;70.70;;;;;;5012791;28;20422;-83
2021/04/27 10:17:40;;;;;;;10.67;7.80;;;21.40;69.10;;;;;;5012390;28;20891;-84
2021/04/27 10:20:11;;;;;;;8.57;6.33;;;21.10;67.50;;;;;;5013410;28;20458;-84
2021/04/27 10:22:38;;;;;;;11.13;7.03;;;21.30;70.20;;;;;;5020767;28;21180;-82
2021/04/27 10:25:05;;;;;;;10.47;6.77;;;21.40;69.30;;;;;;5002343;28;20536;-83
2021/04/27 10:27:31;;;;;;;7.87;6.90;;;21.60;69.50;;;;;;5012220;28;20429;-84
2021/04/27 10:30:17;;;;;;;8.10;7.30;;;21.70;71.60;;;;;;5012626;28;20959;-84
2021/04/27 10:32:44;;;;;;;10.70;7.17;;;21.90;68.40;;;;;;5011266;28;20430;-84
2021/04/27 10:35:12;;;;;;;8.50;6.90;;;22.30;66.80;;;;;;5008543;28;20505;-83
2021/04/27 10:38:03;;;;;;;9.03;6.83;;;22.10;66.70;;;;;;5012488;28;20519;-84
2021/04/27 10:40:40;;;;;;;8.27;6.63;;;21.80;66.60;;;;;;5010603;28;20469;-83
2021/04/27 10:43:27;;;;;;;8.37;6.93;;;21.50;68.30;;;;;;5011768;28;20487;-84
2021/04/27 10:45:58;;;;;;;8.47;7.10;;;21.70;68.90;;;;;;5009367;28;20413;-82
2021/04/27 10:48:26;;;;;;;8.50;7.20;;;21.60;68.50;;;;;;5011885;28;20952;-83
2021/04/27 10:50:52;;;;;;;12.40;8.30;;;21.70;66.40;;;;;;5011957;28;20978;-84
2021/04/27 10:53:36;;;;;;;14.27;8.30;;;21.70;67.50;;;;;;5012317;28;20512;-84
2021/04/27 10:56:04;;;;;;;8.90;7.10;;;21.30;66.00;;;;;;5011405;28;21128;-84
2021/04/27 10:58:46;;;;;;;11.60;8.03;;;21.60;68.30;;;;;;5011970;28;20464;-84
2021/04/27 11:01:31;;;;;;;11.53;7.63;;;21.90;68.00;;;;;;5015805;28;20430;-84
2021/04/27 11:03:57;;;;;;;11.23;7.37;;;21.90;67.50;;;;;;5013020;28;20437;-83
2021/04/27 11:06:23;;;;;;;10.30;7.77;;;21.60;67.00;;;;;;5010374;28;20580;-89
2021/04/27 11:08:57;;;;;;;8.73;6.73;;;21.60;68.90;;;;;;5011955;28;20442;-86
2021/04/27 11:11:34;;;;;;;11.40;8.20;;;21.90;68.40;;;;;;5010902;28;20417;-85
2021/04/27 11:14:11;;;;;;;14.70;8.73;;;21.50;65.40;;;;;;5014757;28;20514;-85
2021/04/27 11:16:38;;;;;;;7.87;7.17;;;20.80;66.30;;;;;;5013437;28;20833;-86
2021/04/27 11:19:12;;;;;;;11.60;7.33;;;21.00;67.20;;;;;;5011052;28;20527;-85
2021/04/27 11:21:38;;;;;;;12.60;8.07;;;20.60;66.80;;;;;;5012069;28;20475;-85
2021/04/27 11:24:09;;;;;;;16.93;8.97;;;20.80;67.10;;;;;;5011649;28;20516;-86
2021/04/27 11:26:35;;;;;;;12.37;7.57;;;20.90;64.70;;;;;;5011519;28;20429;-84
2021/04/27 11:29:22;;;;;;;9.53;7.60;;;20.70;64.80;;;;;;5011125;28;20450;-85
2021/04/27 11:32:06;;;;;;;9.40;7.50;;;20.60;67.90;;;;;;5004384;28;20170;-84
2021/04/27 11:34:47;;;;;;;11.93;7.87;;;20.90;70.60;;;;;;5011421;28;20417;-84
2021/04/27 11:37:22;;;;;;;11.33;7.80;;;20.80;66.10;;;;;;5006909;28;20549;-85
2021/04/27 11:39:48;;;;;;;13.73;7.97;;;20.50;66.40;;;;;;5010974;28;20838;-85
2021/04/27 11:42:21;;;;;;;12.00;7.97;;;20.60;69.00;;;;;;5011627;28;20418;-85
2021/04/27 11:44:47;;;;;;;12.33;7.37;;;20.60;68.50;;;;;;5011903;28;20191;-85
2021/04/27 11:47:17;;;;;;;9.73;7.63;;;20.30;66.50;;;;;;5011400;28;20847;-86
2021/04/27 11:49:55;;;;;;;10.83;8.00;;;20.40;70.60;;;;;;5007826;28;20214;-86
2021/04/27 11:52:38;;;;;;;11.80;8.23;;;20.30;68.90;;;;;;5010740;28;20429;-87
2021/04/27 11:55:10;;;;;;;11.80;8.27;;;20.00;65.90;;;;;;5013389;28;20545;-85
2021/04/27 11:57:36;;;;;;;9.60;6.63;;;19.90;64.90;;;;;;5014374;28;20465;-86
2021/04/27 12:00:02;;;;;;;14.40;7.90;;;19.90;67.20;;;;;;5015665;28;20496;-85
2021/04/27 12:02:31;;;;;;;11.13;7.13;;;19.90;67.60;;;;;;5015332;28;20475;-85
2021/04/27 12:04:58;;;;;;;10.50;7.53;;;19.90;68.30;;;;;;5015319;28;20449;-86
2021/04/27 12:07:27;;;;;;;14.57;8.40;;;19.40;61.20;;;;;;5016523;28;20425;-85
2021/04/27 12:09:55;;;;;;;12.17;8.17;;;19.00;63.70;;;;;;5015425;28;20469;-86
2021/04/27 12:12:21;;;;;;;9.53;7.03;;;18.90;64.50;;;;;;5015417;28;20531;-85
2021/04/27 12:14:55;;;;;;;10.90;7.47;;;18.80;65.10;;;;;;5015382;28;20508;-85
2021/04/27 12:17:46;;;;;;;12.63;8.10;;;18.80;67.10;;;;;;5012641;28;20342;-86
2021/04/27 12:20:18;;;;;;;11.60;8.40;;;18.80;65.80;;;;;;5008395;28;20465;-86
2021/04/27 12:22:49;;;;;;;9.03;7.73;;;19.00;67.50;;;;;;5014209;28;20428;-85
2021/04/27 12:25:20;;;;;;;8.03;6.83;;;18.90;64.70;;;;;;5011812;28;20418;-85
2021/04/27 12:27:48;;;;;;;9.40;8.00;;;18.90;64.70;;;;;;5027398;28;20508;-86
2021/04/27 12:30:18;;;;;;;9.83;7.83;;;19.00;65.80;;;;;;5015241;28;20445;-86
2021/04/27 12:32:49;;;;;;;8.77;7.70;;;18.90;65.30;;;;;;5013837;28;20432;-85
2021/04/27 12:35:17;;;;;;;9.53;7.33;;;18.90;65.00;;;;;;5015520;28;20451;-86
2021/04/27 12:37:43;;;;;;;13.80;7.87;;;18.90;65.90;;;;;;5011528;28;20457;-86
2021/04/27 12:40:15;;;;;;;11.23;7.70;;;18.90;66.30;;;;;;5014365;28;20789;-86
2021/04/27 12:42:52;;;;;;;10.50;7.90;;;19.10;65.20;;;;;;5014025;28;20425;-86
2021/04/27 12:45:18;;;;;;;10.60;8.13;;;19.20;63.70;;;;;;5013761;28;20422;-85
2021/04/27 12:47:47;;;;;;;12.90;7.50;;;19.00;63.10;;;;;;5015407;28;20448;-85
2021/04/27 12:50:19;;;;;;;9.90;7.23;;;18.80;63.30;;;;;;5013614;28;20569;-86
2021/04/27 12:52:57;;;;;;;8.87;6.97;;;18.70;65.10;;;;;;5014979;28;20432;-86
2021/04/27 12:55:31;;;;;;;11.70;7.67;;;18.70;64.90;;;;;;5012868;28;20848;-83